createdAt,value
2022-10-02T00:01:57.167Z,0.85
2022-10-02T00:03:54.614Z,0.85
2022-10-02T00:05:54.158Z,0.85
2022-10-02T00:07:54.898Z,0.85
2022-10-02T00:09:54.549Z,0.85
2022-10-02T00:11:54.001Z,0.85
2022-10-02T00:13:54.324Z,0.85
2022-10-02T00:15:54.109Z,0.85
2022-10-02T00:17:55.509Z,0.85
2022-10-02T00:19:53.875Z,0.85
2022-10-02T00:21:54.020Z,0.85
2022-10-02T00:23:54.463Z,0.85
2022-10-02T00:25:53.824Z,0.85
2022-10-02T00:27:54.627Z,0.85
2022-10-02T00:29:54.453Z,0.85
2022-10-02T00:31:55.157Z,0.85
2022-10-02T00:33:54.115Z,0.85
2022-10-02T00:35:56.798Z,0.85
2022-10-02T00:37:54.353Z,0.85
2022-10-02T00:39:53.952Z,0.85
2022-10-02T00:41:54.110Z,0.85
2022-10-02T00:43:54.704Z,0.85
2022-10-02T00:45:54.237Z,0.85
2022-10-02T00:47:54.921Z,0.85
2022-10-02T00:49:54.190Z,0.85
2022-10-02T00:51:54.782Z,0.85
2022-10-02T00:53:54.548Z,0.85
2022-10-02T00:55:54.799Z,0.85
2022-10-02T00:57:54.127Z,0.85
2022-10-02T00:59:54.449Z,0.85
2022-10-02T01:01:56.569Z,0.85
2022-10-02T01:03:54.498Z,0.85
2022-10-02T01:05:54.145Z,0.85
2022-10-02T01:07:54.749Z,0.85
2022-10-02T01:09:54.042Z,0.85
2022-10-02T01:11:53.729Z,0.85
2022-10-02T01:13:54.558Z,0.85
2022-10-02T01:15:54.547Z,0.85
2022-10-02T01:17:55.115Z,0.85
2022-10-02T01:19:53.858Z,0.85
2022-10-02T01:21:53.952Z,0.85
2022-10-02T01:23:54.013Z,0.85
2022-10-02T01:25:54.067Z,0.85
2022-10-02T01:28:01.491Z,0.85
2022-10-02T01:29:54.731Z,0.85
2022-10-02T01:31:54.432Z,0.85
2022-10-02T01:33:54.008Z,0.85
2022-10-02T01:35:53.928Z,0.85
2022-10-02T01:37:54.149Z,0.85
2022-10-02T01:39:54.003Z,0.85
2022-10-02T01:41:54.338Z,0.85
2022-10-02T01:43:53.639Z,0.85
2022-10-02T01:45:54.844Z,0.85
2022-10-02T01:47:55.419Z,0.85
2022-10-02T01:49:53.941Z,0.85
2022-10-02T01:51:54.084Z,0.85
2022-10-02T01:53:54.296Z,0.85
2022-10-02T01:55:53.675Z,0.85
2022-10-02T01:57:55.042Z,0.85
2022-10-02T01:59:54.586Z,0.85
2022-10-02T02:01:58.120Z,0.85
2022-10-02T02:03:54.511Z,0.85
2022-10-02T02:05:54.391Z,0.85
2022-10-02T02:07:54.243Z,0.85
2022-10-02T02:09:58.336Z,0.85
2022-10-02T02:11:54.238Z,0.85
2022-10-02T02:13:54.592Z,0.85
2022-10-02T02:15:54.389Z,283349
2022-10-02T02:17:55.518Z,3108.77
2022-10-02T02:19:54.697Z,3108.77
2022-10-02T02:21:56.015Z,5.65
2022-10-02T02:23:54.512Z,4.74
2022-10-02T02:25:54.148Z,4.74
2022-10-02T02:27:55.259Z,2.18
2022-10-02T02:29:54.121Z,1.75
2022-10-02T02:31:54.832Z,1.75
2022-10-02T02:33:54.615Z,1.4
2022-10-02T02:35:54.192Z,1.4
2022-10-02T02:37:55.078Z,1.4
2022-10-02T02:39:53.695Z,1.1
2022-10-02T02:41:53.833Z,1.1
2022-10-02T02:43:58.977Z,1.1
2022-10-02T02:45:54.957Z,1.1
2022-10-02T02:47:55.388Z,1.1
2022-10-02T02:49:54.262Z,1.1
2022-10-02T02:51:54.452Z,1.1
2022-10-02T02:53:53.973Z,1.1
2022-10-02T02:55:56.571Z,1.1
2022-10-02T02:57:54.602Z,1.1
2022-10-02T02:59:54.250Z,1.1
2022-10-02T03:01:57.892Z,1.1
2022-10-02T03:03:55.261Z,1.1
2022-10-02T03:05:53.870Z,1.1
2022-10-02T03:07:54.684Z,1.1
2022-10-02T03:09:53.880Z,1.1
2022-10-02T03:11:54.253Z,1.1
2022-10-02T03:13:53.766Z,1.1
2022-10-02T03:15:54.760Z,1.1
2022-10-02T03:17:54.994Z,1.1
2022-10-02T03:19:54.004Z,1.1
2022-10-02T03:21:54.123Z,1.1
2022-10-02T03:23:55.092Z,1.1
2022-10-02T03:25:53.685Z,1.1
2022-10-02T03:27:57.982Z,1.1
2022-10-02T03:30:21.140Z,1.1
2022-10-02T03:31:54.487Z,1.1
2022-10-02T03:33:54.388Z,1.1
2022-10-02T03:35:53.751Z,1.1
2022-10-02T03:37:54.635Z,1.1
2022-10-02T03:40:22.283Z,1.1
2022-10-02T03:41:54.155Z,1.1
2022-10-02T03:43:54.646Z,1.1
2022-10-02T03:46:23.757Z,1.1
2022-10-02T03:47:55.039Z,1.1
2022-10-02T03:49:53.735Z,1.1
2022-10-02T03:51:55.342Z,1.1
2022-10-02T03:53:53.887Z,3922.67
2022-10-02T03:55:54.164Z,3922.67
2022-10-02T03:57:54.780Z,3922.67
2022-10-02T03:59:53.867Z,3922.67
2022-10-02T04:02:00.704Z,3922.67
2022-10-02T04:03:54.738Z,3922.67
2022-10-02T04:05:54.612Z,3922.67
2022-10-02T04:07:54.363Z,3922.67
2022-10-02T04:09:54.225Z,3922.67
2022-10-02T04:11:54.067Z,3922.67
2022-10-02T04:13:54.654Z,3922.67
2022-10-02T04:15:54.774Z,3922.67
2022-10-02T04:17:58.784Z,3922.67
2022-10-02T04:19:54.703Z,3922.67
2022-10-02T04:21:54.557Z,3922.67
2022-10-02T04:23:53.891Z,3922.67
2022-10-02T04:25:53.946Z,3922.67
2022-10-02T04:27:54.800Z,3922.67
2022-10-02T04:29:54.393Z,3922.67
2022-10-02T04:31:54.979Z,3922.67
2022-10-02T04:34:00.770Z,3922.67
2022-10-02T04:35:54.115Z,3922.67
2022-10-02T04:37:54.687Z,3922.67
2022-10-02T04:39:58.065Z,3922.67
2022-10-02T04:41:54.045Z,3922.67
2022-10-02T04:43:54.060Z,3922.67
2022-10-02T04:45:54.451Z,3922.67
2022-10-02T04:47:55.034Z,3922.67
2022-10-02T04:49:54.337Z,3922.67
2022-10-02T04:51:54.230Z,3922.67
2022-10-02T04:53:54.646Z,3922.67
2022-10-02T04:55:54.639Z,3922.67
2022-10-02T04:57:54.969Z,3922.67
2022-10-02T04:59:54.495Z,3922.67
2022-10-02T05:01:57.849Z,3922.67
2022-10-02T05:03:54.944Z,3922.67
2022-10-02T05:05:57.622Z,3922.67
2022-10-02T05:07:55.382Z,3922.67
2022-10-02T05:09:59.707Z,3922.67
2022-10-02T05:11:55.112Z,3922.67
2022-10-02T05:13:54.675Z,3922.67
2022-10-02T05:15:55.077Z,3922.67
2022-10-02T05:17:56.297Z,3922.67
2022-10-02T05:19:59.372Z,3922.67
2022-10-02T05:21:54.548Z,3922.67
2022-10-02T05:23:54.298Z,3922.67
2022-10-02T05:25:54.416Z,3922.67
2022-10-02T05:27:56.317Z,3922.67
2022-10-02T05:29:54.182Z,3922.67
2022-10-02T05:31:54.988Z,3922.67
2022-10-02T05:33:59.547Z,3922.67
2022-10-02T05:35:54.694Z,3922.67
2022-10-02T05:37:55.038Z,3922.67
2022-10-02T05:39:54.116Z,3922.67
2022-10-02T05:41:54.556Z,3922.67
2022-10-02T05:43:58.787Z,3922.67
2022-10-02T05:45:54.341Z,3922.67
2022-10-02T05:47:54.826Z,3922.67
2022-10-02T05:49:54.063Z,3922.67
2022-10-02T05:51:54.041Z,3922.67
2022-10-02T05:53:54.528Z,3922.67
2022-10-02T05:55:53.975Z,3922.67
2022-10-02T05:57:54.777Z,3922.67
2022-10-02T05:59:53.924Z,3922.67
2022-10-02T06:01:58.443Z,3922.67
2022-10-02T06:03:58.456Z,3922.67
2022-10-02T06:05:54.045Z,3922.67
2022-10-02T06:07:55.031Z,3922.67
2022-10-02T06:09:54.502Z,3922.67
2022-10-02T06:11:54.585Z,3922.67
2022-10-02T06:13:53.669Z,3922.67
2022-10-02T06:15:58.406Z,3922.67
2022-10-02T06:17:55.107Z,3922.67
2022-10-02T06:19:54.017Z,3922.67
2022-10-02T06:21:56.434Z,3922.67
2022-10-02T06:23:54.618Z,3922.67
2022-10-02T06:25:54.256Z,3922.67
2022-10-02T06:27:55.396Z,3922.67
2022-10-02T06:30:00.723Z,3922.67
2022-10-02T06:31:54.622Z,3922.67
2022-10-02T06:33:54.451Z,3922.67
2022-10-02T06:35:55.826Z,3922.67
2022-10-02T06:37:54.507Z,3922.67
2022-10-02T06:39:53.890Z,3922.67
2022-10-02T06:41:54.347Z,3922.67
2022-10-02T06:43:54.383Z,3922.67
2022-10-02T06:45:54.646Z,3922.67
2022-10-02T06:47:59.073Z,3922.67
2022-10-02T06:49:54.620Z,3922.67
2022-10-02T06:51:53.964Z,3922.67
2022-10-02T06:53:57.190Z,3922.67
2022-10-02T06:55:54.435Z,3922.67
2022-10-02T06:57:54.834Z,3922.67
2022-10-02T06:59:54.651Z,3922.67
2022-10-02T07:01:57.973Z,283349
2022-10-02T07:03:54.417Z,283349
2022-10-02T07:05:54.576Z,283349
2022-10-02T07:07:54.309Z,283349
2022-10-02T07:09:54.202Z,283349
2022-10-02T07:11:53.804Z,283349
2022-10-02T07:13:54.344Z,283349
2022-10-02T07:15:54.104Z,283349
2022-10-02T07:17:56.314Z,283349
2022-10-02T07:19:53.776Z,283349
2022-10-02T07:21:53.855Z,283349
2022-10-02T07:24:26.708Z,283349
2022-10-02T07:25:55.325Z,283349
2022-10-02T07:27:55.268Z,283349
2022-10-02T07:29:54.316Z,283349
2022-10-02T07:31:54.488Z,283349
2022-10-02T07:33:54.718Z,283349
2022-10-02T07:35:54.144Z,283349
2022-10-02T07:37:54.480Z,283349
2022-10-02T07:39:54.076Z,283349
2022-10-02T07:41:56.350Z,283349
2022-10-02T07:43:54.031Z,283349
2022-10-02T07:45:54.469Z,283349
2022-10-02T07:47:55.269Z,283349
2022-10-02T07:49:54.053Z,283349
2022-10-02T07:51:54.812Z,283349
2022-10-02T07:53:54.016Z,283349
2022-10-02T07:55:54.374Z,283349
2022-10-02T07:57:55.152Z,283349
2022-10-02T07:59:53.882Z,283349
2022-10-02T08:01:56.972Z,283349
2022-10-02T08:03:54.964Z,283349
2022-10-02T08:05:56.246Z,283349
2022-10-02T08:07:54.708Z,22605.5
2022-10-02T08:09:54.599Z,22605.5
2022-10-02T08:12:00.491Z,22605.5
2022-10-02T08:13:54.654Z,6.7
2022-10-02T08:15:54.866Z,6.7
2022-10-02T08:17:54.969Z,6.7
2022-10-02T08:20:29.291Z,2.18
2022-10-02T08:21:59.413Z,2.18
2022-10-02T08:23:54.359Z,2.18
2022-10-02T08:25:54.454Z,1.1
2022-10-02T08:27:55.263Z,1.1
2022-10-02T08:29:54.438Z,1.1
2022-10-02T08:31:55.034Z,0.85
2022-10-02T08:33:54.339Z,0.85
2022-10-02T08:35:54.651Z,0.85
2022-10-02T08:37:54.772Z,0.85
2022-10-02T08:39:54.285Z,0.85
2022-10-02T08:41:54.912Z,0.85
2022-10-02T08:43:54.652Z,0.85
2022-10-02T08:45:55.657Z,0.85
2022-10-02T08:47:55.004Z,0.85
2022-10-02T08:49:54.461Z,0.85
2022-10-02T08:51:54.055Z,0.85
2022-10-02T08:53:54.838Z,0.85
2022-10-02T08:55:54.021Z,0.65
2022-10-02T08:58:01.118Z,0.65
2022-10-02T08:59:54.066Z,0.65
2022-10-02T09:02:00.034Z,0.65
2022-10-02T09:03:55.117Z,0.65
2022-10-02T09:05:54.343Z,0.65
2022-10-02T09:08:01.185Z,0.65
2022-10-02T09:09:53.931Z,0.65
2022-10-02T09:11:54.181Z,0.65
2022-10-02T09:13:54.856Z,0.65
2022-10-02T09:15:55.591Z,0.65
2022-10-02T09:17:55.199Z,0.65
2022-10-02T09:19:54.051Z,0.65
2022-10-02T09:21:56.901Z,0.65
2022-10-02T09:23:54.256Z,0.65
2022-10-02T09:25:54.221Z,0.65
2022-10-02T09:27:54.837Z,0.65
2022-10-02T09:29:54.575Z,0.65
2022-10-02T09:31:55.109Z,0.65
2022-10-02T09:33:58.904Z,0.65
2022-10-02T09:35:53.779Z,0.65
2022-10-02T09:37:54.962Z,0.65
2022-10-02T09:39:58.149Z,0.65
2022-10-02T09:41:54.535Z,0.65
2022-10-02T09:43:54.286Z,0.65
2022-10-02T09:45:59.088Z,0.65
2022-10-02T09:47:55.521Z,0.65
2022-10-02T09:49:54.185Z,0.65
2022-10-02T09:51:55.894Z,0.65
2022-10-02T09:54:01.677Z,0.65
2022-10-02T09:55:54.684Z,0.65
2022-10-02T09:57:56.379Z,0.65
2022-10-02T09:59:54.902Z,0.65
2022-10-02T10:01:58.828Z,0.65
2022-10-02T10:03:56.405Z,0.65
2022-10-02T10:06:23.466Z,0.65
2022-10-02T10:07:54.298Z,0.65
2022-10-02T10:09:54.480Z,0.65
2022-10-02T10:11:54.478Z,0.65
2022-10-02T10:13:54.904Z,0.65
2022-10-02T10:15:54.829Z,0.65
2022-10-02T10:17:54.791Z,0.65
2022-10-02T10:19:54.693Z,0.65
2022-10-02T10:21:54.546Z,0.65
2022-10-02T10:23:54.120Z,0.65
2022-10-02T10:25:54.279Z,0.65
2022-10-02T10:27:54.761Z,0.65
2022-10-02T10:29:54.197Z,0.65
2022-10-02T10:31:55.214Z,0.65
2022-10-02T10:33:54.431Z,0.65
2022-10-02T10:35:54.584Z,0.65
2022-10-02T10:37:54.784Z,0.65
2022-10-02T10:39:54.474Z,0.65
2022-10-02T10:41:54.300Z,0.65
2022-10-02T10:44:16.325Z,0.65
2022-10-02T10:45:55.313Z,0.65
2022-10-02T10:47:55.215Z,0.65
2022-10-02T10:49:57.540Z,0.65
2022-10-02T10:51:55.248Z,0.65
2022-10-02T10:53:57.213Z,0.65
2022-10-02T10:55:55.248Z,0.65
2022-10-02T10:57:54.400Z,0.65
2022-10-02T10:59:59.467Z,0.65
2022-10-02T11:01:57.888Z,0.65
2022-10-02T11:03:55.252Z,0.65
2022-10-02T11:05:54.567Z,0.65
2022-10-02T11:07:55.966Z,0.65
2022-10-02T11:09:55.336Z,0.65
2022-10-02T11:11:55.163Z,0.65
2022-10-02T11:13:57.252Z,0.65
2022-10-02T11:15:55.750Z,0.65
2022-10-02T11:17:55.969Z,0.65
2022-10-02T11:19:56.249Z,0.65
2022-10-02T11:21:54.581Z,0.65
2022-10-02T11:23:54.861Z,0.65
2022-10-02T11:25:58.393Z,0.65
2022-10-02T11:27:54.231Z,0.65
2022-10-02T11:29:55.473Z,0.65
2022-10-02T11:32:01.366Z,0.65
2022-10-02T11:33:55.898Z,0.65
2022-10-02T11:35:54.096Z,0.65
2022-10-02T11:37:55.595Z,0.65
2022-10-02T11:39:56.941Z,0.65
2022-10-02T11:41:54.790Z,0.65
2022-10-02T11:43:55.558Z,0.65
2022-10-02T11:45:55.656Z,0.65
2022-10-02T11:47:55.258Z,0.65
2022-10-02T11:49:55.173Z,0.65
2022-10-02T11:51:54.420Z,0.65
2022-10-02T11:53:56.209Z,0.65
2022-10-02T11:55:54.558Z,0.65
2022-10-02T11:57:54.558Z,0.65
2022-10-02T11:59:54.125Z,0.65
2022-10-02T12:02:00.463Z,0.65
2022-10-02T12:03:59.543Z,0.65
2022-10-02T12:05:54.164Z,0.65
2022-10-02T12:07:54.315Z,0.65
2022-10-02T12:09:54.814Z,0.65
2022-10-02T12:11:54.417Z,0.65
2022-10-02T12:13:58.238Z,0.65
2022-10-02T12:15:54.599Z,0.65
2022-10-02T12:17:55.438Z,0.65
2022-10-02T12:19:54.618Z,0.85
2022-10-02T12:21:54.390Z,0.85
2022-10-02T12:23:54.940Z,0.85
2022-10-02T12:25:58.021Z,0.65
2022-10-02T12:27:54.610Z,0.65
2022-10-02T12:29:54.947Z,0.65
2022-10-02T12:31:54.392Z,0.65
2022-10-02T12:33:56.752Z,0.65
2022-10-02T12:35:54.614Z,0.65
2022-10-02T12:37:54.968Z,0.65
2022-10-02T12:39:56.108Z,0.65
2022-10-02T12:41:54.995Z,0.65
2022-10-02T12:43:54.125Z,0.85
2022-10-02T12:45:57.413Z,0.85
2022-10-02T12:47:54.197Z,0.85
2022-10-02T12:49:54.053Z,0.85
2022-10-02T12:52:02.445Z,0.85
2022-10-02T12:53:54.646Z,0.85
2022-10-02T12:55:53.886Z,0.85
2022-10-02T12:58:01.317Z,0.85
2022-10-02T12:59:54.710Z,0.85
2022-10-02T13:01:58.550Z,0.85
2022-10-02T13:04:27.441Z,0.85
2022-10-02T13:05:58.481Z,0.85
2022-10-02T13:07:55.543Z,0.85
2022-10-02T13:09:54.966Z,0.85
2022-10-02T13:11:58.436Z,0.85
2022-10-02T13:14:01.042Z,0.85
2022-10-02T13:15:55.299Z,0.85
2022-10-02T13:17:59.269Z,0.85
2022-10-02T13:19:55.949Z,0.85
2022-10-02T13:22:00.202Z,0.85
2022-10-02T13:23:57.153Z,0.85
2022-10-02T13:25:59.660Z,0.85
2022-10-02T13:28:00.276Z,0.85
2022-10-02T13:30:06.613Z,0.85
2022-10-02T13:32:06.192Z,0.85
2022-10-02T13:34:03.959Z,0.85
2022-10-02T13:35:59.292Z,0.85
2022-10-02T13:37:55.686Z,0.85
2022-10-02T13:39:55.473Z,0.85
2022-10-02T13:41:59.295Z,0.85
2022-10-02T13:43:58.591Z,0.85
2022-10-02T13:46:00.029Z,0.85
2022-10-02T13:47:55.589Z,0.85
2022-10-02T13:49:56.032Z,0.85
2022-10-02T13:52:02.002Z,0.85
2022-10-02T13:53:54.097Z,0.85
2022-10-02T13:55:55.257Z,0.85
2022-10-02T13:57:57.637Z,0.85
2022-10-02T13:59:55.486Z,0.85
2022-10-02T14:02:04.403Z,0.85
2022-10-02T14:03:57.279Z,0.85
2022-10-02T14:06:08.424Z,0.85
2022-10-02T14:07:56.535Z,0.85
2022-10-02T14:09:59.063Z,0.85
2022-10-02T14:11:55.500Z,0.85
2022-10-02T14:13:59.032Z,0.85
2022-10-02T14:15:57.485Z,0.85
2022-10-02T14:17:55.837Z,0.85
2022-10-02T14:19:58.976Z,0.85
2022-10-02T14:21:56.227Z,0.85
2022-10-02T14:23:58.911Z,0.85
2022-10-02T14:25:57.521Z,0.85
2022-10-02T14:27:59.611Z,0.85
2022-10-02T14:30:02.900Z,0.85
2022-10-02T14:32:13.095Z,0.85
2022-10-02T14:33:57.612Z,0.85
2022-10-02T14:35:58.229Z,0.85
2022-10-02T14:37:56.246Z,0.85
2022-10-02T14:39:58.825Z,0.85
2022-10-02T14:42:00.661Z,0.85
2022-10-02T14:43:55.311Z,0.85
2022-10-02T14:45:55.890Z,0.85
2022-10-02T14:48:01.953Z,0.85
2022-10-02T14:49:58.628Z,0.85
2022-10-02T14:51:55.909Z,0.85
2022-10-02T14:53:57.128Z,0.85
2022-10-02T14:55:54.501Z,0.85
2022-10-02T14:57:54.642Z,0.85
2022-10-02T14:59:54.159Z,0.85
2022-10-02T15:01:58.425Z,0.85
2022-10-02T15:03:54.646Z,0.85
2022-10-02T15:06:00.403Z,0.85
2022-10-02T15:07:54.463Z,0.85
2022-10-02T15:09:53.784Z,0.85
2022-10-02T15:11:54.956Z,0.85
2022-10-02T15:13:59.108Z,0.85
2022-10-02T15:15:54.226Z,0.85
2022-10-02T15:17:54.347Z,0.85
2022-10-02T15:20:00.336Z,0.85
2022-10-02T15:21:54.727Z,0.85
2022-10-02T15:23:54.491Z,0.85
2022-10-02T15:25:58.372Z,0.85
2022-10-02T15:27:54.673Z,0.85
2022-10-02T15:30:18.934Z,0.85
2022-10-02T15:31:54.638Z,0.85
2022-10-02T15:33:56.369Z,0.85
2022-10-02T15:35:54.210Z,0.85
2022-10-02T15:37:53.663Z,0.85
2022-10-02T15:39:58.905Z,0.85
2022-10-02T15:41:54.763Z,0.85
2022-10-02T15:43:57.853Z,1.1
2022-10-02T15:45:54.244Z,1.1
2022-10-02T15:47:55.373Z,1.1
2022-10-02T15:49:59.989Z,0.85
2022-10-02T15:51:54.527Z,0.85
2022-10-02T15:53:54.519Z,0.85
2022-10-02T15:55:53.716Z,0.85
2022-10-02T15:57:54.771Z,0.85
2022-10-02T15:59:54.672Z,0.85
2022-10-02T16:01:57.924Z,0.85
2022-10-02T16:03:54.600Z,0.85
2022-10-02T16:05:54.652Z,0.85
2022-10-02T16:07:59.058Z,1.1
2022-10-02T16:09:54.420Z,1.1
2022-10-02T16:11:54.025Z,1.1
2022-10-02T16:13:58.854Z,0.85
2022-10-02T16:15:54.692Z,0.85
2022-10-02T16:17:56.190Z,0.85
2022-10-02T16:19:53.982Z,0.85
2022-10-02T16:21:53.852Z,0.85
2022-10-02T16:23:59.162Z,0.85
2022-10-02T16:25:54.261Z,0.85
2022-10-02T16:27:55.464Z,0.85
2022-10-02T16:29:54.349Z,0.85
2022-10-02T16:31:54.652Z,0.85
2022-10-02T16:33:54.358Z,0.85
2022-10-02T16:35:55.436Z,0.85
2022-10-02T16:37:55.050Z,0.85
2022-10-02T16:39:54.692Z,0.85
2022-10-02T16:41:58.365Z,0.85
2022-10-02T16:43:54.361Z,0.85
2022-10-02T16:45:54.327Z,0.85
2022-10-02T16:47:54.682Z,0.85
2022-10-02T16:49:54.674Z,0.85
2022-10-02T16:52:00.584Z,0.85
2022-10-02T16:53:54.668Z,0.85
2022-10-02T16:55:54.582Z,0.85
2022-10-02T16:57:54.796Z,0.85
2022-10-02T16:59:58.140Z,0.85
2022-10-02T17:02:27.471Z,0.85
2022-10-02T17:04:11.608Z,0.85
2022-10-02T17:05:54.479Z,0.85
2022-10-02T17:07:55.557Z,0.85
2022-10-02T17:09:54.727Z,0.85
2022-10-02T17:12:00.774Z,0.85
2022-10-02T17:13:55.216Z,0.85
2022-10-02T17:15:55.230Z,0.85
2022-10-02T17:18:00.443Z,0.85
2022-10-02T17:19:54.740Z,0.85
2022-10-02T17:21:54.829Z,0.85
2022-10-02T17:23:57.812Z,0.85
2022-10-02T17:25:54.283Z,0.85
2022-10-02T17:27:54.936Z,0.85
2022-10-02T17:29:56.001Z,0.85
2022-10-02T17:31:55.726Z,0.85
2022-10-02T17:33:54.990Z,0.85
2022-10-02T17:35:55.986Z,0.85
2022-10-02T17:37:55.949Z,0.85
2022-10-02T17:39:55.064Z,0.85
2022-10-02T17:41:56.299Z,0.85
2022-10-02T17:43:54.272Z,0.85
2022-10-02T17:45:55.563Z,0.85
2022-10-02T17:47:57.793Z,0.85
2022-10-02T17:49:55.327Z,0.65
2022-10-02T17:52:33.657Z,0.65
2022-10-02T17:53:55.519Z,0.65
2022-10-02T17:55:54.947Z,0.85
2022-10-02T17:57:54.478Z,0.85
2022-10-02T17:59:54.806Z,0.85
2022-10-02T18:02:01.750Z,0.65
2022-10-02T18:03:54.708Z,0.65
2022-10-02T18:05:54.437Z,0.65
2022-10-02T18:07:55.876Z,0.85
2022-10-02T18:10:00.747Z,0.85
2022-10-02T18:11:55.033Z,0.85
2022-10-02T18:13:59.416Z,0.65
2022-10-02T18:15:55.199Z,0.65
2022-10-02T18:17:56.085Z,0.65
2022-10-02T18:19:55.238Z,0.85
2022-10-02T18:21:55.417Z,0.85
2022-10-02T18:23:55.307Z,0.85
2022-10-02T18:25:54.891Z,0.65
2022-10-02T18:28:01.977Z,0.65
2022-10-02T18:29:56.159Z,0.65
2022-10-02T18:32:26.347Z,0.65
2022-10-02T18:33:57.113Z,0.65
2022-10-02T18:36:01.659Z,0.65
2022-10-02T18:37:56.450Z,0.85
2022-10-02T18:40:02.615Z,0.85
2022-10-02T18:42:02.345Z,0.85
2022-10-02T18:43:55.824Z,0.65
2022-10-02T18:45:55.584Z,0.65
2022-10-02T18:47:55.138Z,0.65
2022-10-02T18:50:02.315Z,0.65
2022-10-02T18:51:54.921Z,0.65
2022-10-02T18:53:55.220Z,0.65
2022-10-02T18:55:54.978Z,0.85
2022-10-02T18:57:57.122Z,0.85
2022-10-02T18:59:56.337Z,0.85
2022-10-02T19:01:58.718Z,0.85
2022-10-02T19:03:54.530Z,0.85
2022-10-02T19:05:53.829Z,0.85
2022-10-02T19:07:56.757Z,0.85
2022-10-02T19:09:54.303Z,0.85
2022-10-02T19:11:54.678Z,0.85
2022-10-02T19:14:00.163Z,0.85
2022-10-02T19:15:54.260Z,0.85
2022-10-02T19:17:54.403Z,0.85
2022-10-02T19:19:53.812Z,0.85
2022-10-02T19:21:59.029Z,0.85
2022-10-02T19:23:53.785Z,0.85
2022-10-02T19:25:54.343Z,0.85
2022-10-02T19:27:54.392Z,0.85
2022-10-02T19:29:54.674Z,0.85
2022-10-02T19:31:54.904Z,0.85
2022-10-02T19:33:54.492Z,0.85
2022-10-02T19:35:54.339Z,0.85
2022-10-02T19:37:53.986Z,0.85
2022-10-02T19:39:54.750Z,0.85
2022-10-02T19:41:54.569Z,0.85
2022-10-02T19:43:54.334Z,1.1
2022-10-02T19:45:59.148Z,1.1
2022-10-02T19:47:54.408Z,1.1
2022-10-02T19:49:54.452Z,1.1
2022-10-02T19:51:54.404Z,1.1
2022-10-02T19:53:53.961Z,1.1
2022-10-02T19:55:59.307Z,1.1
2022-10-02T19:57:54.683Z,1.1
2022-10-02T19:59:53.927Z,1.1
2022-10-02T20:02:00.300Z,1.1
2022-10-02T20:03:54.308Z,1.1
2022-10-02T20:05:54.719Z,1.1
2022-10-02T20:07:54.460Z,1.1
2022-10-02T20:09:59.562Z,1.1
2022-10-02T20:11:54.101Z,1.1
2022-10-02T20:13:59.833Z,1.1
2022-10-02T20:15:54.300Z,1.1
2022-10-02T20:17:54.908Z,1.1
2022-10-02T20:19:54.563Z,1.1
2022-10-02T20:21:54.486Z,1.1
2022-10-02T20:23:53.666Z,1.1
2022-10-02T20:25:53.874Z,1.1
2022-10-02T20:27:54.596Z,1.1
2022-10-02T20:29:58.288Z,1.1
2022-10-02T20:31:54.744Z,1.1
2022-10-02T20:33:54.000Z,1.1
2022-10-02T20:35:54.734Z,1.1
2022-10-02T20:37:54.443Z,1.1
2022-10-02T20:39:58.788Z,1.1
2022-10-02T20:41:55.274Z,1.1
2022-10-02T20:43:54.344Z,1.1
2022-10-02T20:45:58.656Z,1.1
2022-10-02T20:47:54.512Z,1.1
2022-10-02T20:50:25.490Z,1.1
2022-10-02T20:51:58.468Z,1.1
2022-10-02T20:53:54.468Z,1.1
2022-10-02T20:55:53.862Z,1.1
2022-10-02T20:58:24.570Z,1.1
2022-10-02T20:59:54.536Z,1.1
2022-10-02T21:01:57.959Z,1.1
2022-10-02T21:03:54.210Z,1.1
2022-10-02T21:05:54.579Z,1.1
2022-10-02T21:08:02.706Z,1.1
2022-10-02T21:09:54.254Z,1.1
2022-10-02T21:11:54.339Z,1.1
2022-10-02T21:13:54.342Z,1.1
2022-10-02T21:15:53.951Z,1.1
2022-10-02T21:17:56.266Z,1.1
2022-10-02T21:19:53.783Z,1.1
2022-10-02T21:22:26.654Z,1.1
2022-10-02T21:23:53.923Z,1.1
2022-10-02T21:25:54.230Z,1.1
2022-10-02T21:27:55.030Z,1.1
2022-10-02T21:29:54.324Z,1.1
2022-10-02T21:31:55.471Z,1.1
2022-10-02T21:33:54.296Z,1.1
2022-10-02T21:35:54.061Z,1.1
2022-10-02T21:37:54.825Z,1.1
2022-10-02T21:39:54.035Z,1.1
2022-10-02T21:41:54.304Z,1.1
2022-10-02T21:43:54.395Z,1.1
2022-10-02T21:46:00.584Z,1.1
2022-10-02T21:47:54.783Z,1.1
2022-10-02T21:49:54.323Z,1.1
2022-10-02T21:51:54.223Z,1.1
2022-10-02T21:53:53.987Z,1.1
2022-10-02T21:55:54.069Z,1.1
2022-10-02T21:57:59.880Z,1.1
2022-10-02T21:59:54.225Z,1.1
2022-10-02T22:02:30.305Z,1.1
2022-10-02T22:04:01.556Z,1.1
2022-10-02T22:05:54.855Z,1.1
2022-10-02T22:08:01.326Z,1.1
2022-10-02T22:09:53.931Z,1.1
2022-10-02T22:11:54.060Z,1.1
2022-10-02T22:13:53.707Z,1.1
2022-10-02T22:15:54.501Z,1.1
2022-10-02T22:17:55.179Z,1.1
2022-10-02T22:19:53.718Z,1.1
2022-10-02T22:21:53.698Z,1.1
2022-10-02T22:23:54.310Z,1.1
2022-10-02T22:25:54.054Z,1.1
2022-10-02T22:27:54.174Z,1.1
2022-10-02T22:29:54.605Z,1.1
2022-10-02T22:31:54.658Z,1.1
2022-10-02T22:33:54.546Z,1.1
2022-10-02T22:35:54.156Z,1.1
2022-10-02T22:37:53.981Z,1.1
2022-10-02T22:39:54.221Z,1.1
2022-10-02T22:41:54.449Z,1.1
2022-10-02T22:43:54.532Z,1.1
2022-10-02T22:45:54.618Z,1.1
2022-10-02T22:48:00.166Z,1.1
2022-10-02T22:49:54.156Z,1.1
2022-10-02T22:51:59.228Z,1.1
2022-10-02T22:53:54.904Z,1.1
2022-10-02T22:55:55.012Z,1.1
2022-10-02T22:57:54.873Z,1.1
2022-10-02T22:59:54.210Z,1.1
2022-10-02T23:02:01.072Z,1.1
2022-10-02T23:03:55.431Z,1.1
2022-10-02T23:05:54.960Z,1.1
2022-10-02T23:07:56.570Z,1.1
2022-10-02T23:09:54.528Z,1.1
2022-10-02T23:11:54.846Z,1.1
2022-10-02T23:13:58.805Z,1.1
2022-10-02T23:15:55.266Z,1.1
2022-10-02T23:17:54.367Z,1.1
2022-10-02T23:19:54.898Z,1.1
2022-10-02T23:21:57.553Z,1.1
2022-10-02T23:23:53.777Z,1.1
2022-10-02T23:25:54.396Z,1.1
2022-10-02T23:27:54.667Z,1.1
2022-10-02T23:29:54.976Z,1.1
2022-10-02T23:31:54.456Z,1.1
2022-10-02T23:33:54.468Z,1.1
2022-10-02T23:35:54.245Z,1.1
2022-10-02T23:37:54.691Z,1.1
2022-10-02T23:39:54.069Z,1.1
2022-10-02T23:41:54.705Z,1.1
2022-10-02T23:43:54.566Z,1.1
2022-10-02T23:45:54.016Z,1.1
2022-10-02T23:47:54.715Z,1.1
2022-10-02T23:49:54.193Z,1.1
2022-10-02T23:51:53.787Z,1.1
2022-10-02T23:53:54.452Z,1.1
2022-10-02T23:55:54.244Z,0.85
2022-10-02T23:57:54.375Z,0.85
2022-10-02T23:59:54.911Z,0.85
